sensor_id;sensor_type;location;lat;lon;timestamp;P1;durP1;ratioP1;P2;durP2;ratioP2
25936;SDS011;13733;51.178;4.450;2023-09-19T00:01:19;10.80;;;2.85;;
25936;SDS011;13733;51.178;4.450;2023-09-19T00:03:45;16.90;;;3.72;;
25936;SDS011;13733;51.178;4.450;2023-09-19T00:06:11;19.85;;;3.55;;
25936;SDS011;13733;51.178;4.450;2023-09-19T00:08:41;14.35;;;3.65;;
25936;SDS011;13733;51.178;4.450;2023-09-19T00:11:09;16.52;;;3.85;;
25936;SDS011;13733;51.178;4.450;2023-09-19T00:13:36;15.27;;;3.47;;
25936;SDS011;13733;51.178;4.450;2023-09-19T00:16:08;13.35;;;3.38;;
25936;SDS011;13733;51.178;4.450;2023-09-19T00:18:35;13.20;;;3.13;;
25936;SDS011;13733;51.178;4.450;2023-09-19T00:21:03;18.20;;;3.60;;
25936;SDS011;13733;51.178;4.450;2023-09-19T00:23:32;17.77;;;3.72;;
25936;SDS011;13733;51.178;4.450;2023-09-19T00:25:58;16.60;;;3.80;;
25936;SDS011;13733;51.178;4.450;2023-09-19T00:28:25;10.40;;;3.45;;
25936;SDS011;13733;51.178;4.450;2023-09-19T00:30:52;11.38;;;2.92;;
25936;SDS011;13733;51.178;4.450;2023-09-19T00:33:20;17.40;;;3.60;;
25936;SDS011;13733;51.178;4.450;2023-09-19T00:35:53;8.57;;;3.05;;
25936;SDS011;13733;51.178;4.450;2023-09-19T00:38:20;16.23;;;3.00;;
25936;SDS011;13733;51.178;4.450;2023-09-19T00:40:52;21.30;;;3.47;;
25936;SDS011;13733;51.178;4.450;2023-09-19T00:43:18;14.60;;;3.83;;
25936;SDS011;13733;51.178;4.450;2023-09-19T00:45:45;13.52;;;3.28;;
25936;SDS011;13733;51.178;4.450;2023-09-19T00:48:16;12.82;;;3.08;;
25936;SDS011;13733;51.178;4.450;2023-09-19T00:50:44;15.27;;;3.35;;
25936;SDS011;13733;51.178;4.450;2023-09-19T00:55:44;11.80;;;2.83;;
25936;SDS011;13733;51.178;4.450;2023-09-19T00:58:11;13.75;;;2.83;;
25936;SDS011;13733;51.178;4.450;2023-09-19T01:00:37;15.48;;;3.38;;
25936;SDS011;13733;51.178;4.450;2023-09-19T01:03:05;7.88;;;2.67;;
25936;SDS011;13733;51.178;4.450;2023-09-19T01:05:33;15.98;;;3.25;;
25936;SDS011;13733;51.178;4.450;2023-09-19T01:07:59;11.95;;;2.90;;
25936;SDS011;13733;51.178;4.450;2023-09-19T01:10:25;11.18;;;2.75;;
25936;SDS011;13733;51.178;4.450;2023-09-19T01:32:09;14.13;;;3.22;;
25936;SDS011;13733;51.178;4.450;2023-09-19T01:34:48;13.52;;;3.20;;
25936;SDS011;13733;51.178;4.450;2023-09-19T01:37:29;12.80;;;3.10;;
25936;SDS011;13733;51.178;4.450;2023-09-19T01:39:58;11.57;;;3.08;;
25936;SDS011;13733;51.178;4.450;2023-09-19T01:45:25;12.52;;;3.30;;
25936;SDS011;13733;51.178;4.450;2023-09-19T01:47:52;13.27;;;3.40;;
25936;SDS011;13733;51.178;4.450;2023-09-19T01:50:36;11.15;;;3.05;;
25936;SDS011;13733;51.178;4.450;2023-09-19T01:53:28;16.30;;;3.50;;
25936;SDS011;13733;51.178;4.450;2023-09-19T01:56:01;9.85;;;3.10;;
25936;SDS011;13733;51.178;4.450;2023-09-19T01:58:37;13.82;;;2.75;;
25936;SDS011;13733;51.178;4.450;2023-09-19T02:01:11;11.60;;;2.90;;
25936;SDS011;13733;51.178;4.450;2023-09-19T02:03:40;12.23;;;3.45;;
25936;SDS011;13733;51.178;4.450;2023-09-19T02:06:13;16.38;;;3.60;;
25936;SDS011;13733;51.178;4.450;2023-09-19T02:08:43;15.95;;;3.20;;
25936;SDS011;13733;51.178;4.450;2023-09-19T02:11:10;15.10;;;3.45;;
25936;SDS011;13733;51.178;4.450;2023-09-19T02:13:38;11.57;;;3.33;;
25936;SDS011;13733;51.178;4.450;2023-09-19T02:16:06;14.77;;;3.70;;
25936;SDS011;13733;51.178;4.450;2023-09-19T02:18:32;12.00;;;3.20;;
25936;SDS011;13733;51.178;4.450;2023-09-19T02:21:03;15.77;;;3.45;;
25936;SDS011;13733;51.178;4.450;2023-09-19T02:23:29;18.38;;;3.13;;
25936;SDS011;13733;51.178;4.450;2023-09-19T02:25:56;11.35;;;3.38;;
25936;SDS011;13733;51.178;4.450;2023-09-19T02:28:26;14.52;;;3.35;;
25936;SDS011;13733;51.178;4.450;2023-09-19T02:30:59;12.25;;;3.25;;
25936;SDS011;13733;51.178;4.450;2023-09-19T02:33:25;17.88;;;3.45;;
25936;SDS011;13733;51.178;4.450;2023-09-19T02:35:56;15.60;;;3.60;;
25936;SDS011;13733;51.178;4.450;2023-09-19T02:38:25;11.98;;;3.38;;
25936;SDS011;13733;51.178;4.450;2023-09-19T02:40:54;12.45;;;2.75;;
25936;SDS011;13733;51.178;4.450;2023-09-19T02:43:21;13.48;;;3.30;;
25936;SDS011;13733;51.178;4.450;2023-09-19T02:45:47;17.85;;;3.63;;
25936;SDS011;13733;51.178;4.450;2023-09-19T02:48:18;16.33;;;3.30;;
25936;SDS011;13733;51.178;4.450;2023-09-19T02:50:45;15.18;;;3.38;;
25936;SDS011;13733;51.178;4.450;2023-09-19T02:53:11;14.80;;;3.65;;
25936;SDS011;13733;51.178;4.450;2023-09-19T02:55:39;15.40;;;3.55;;
25936;SDS011;13733;51.178;4.450;2023-09-19T02:58:08;15.70;;;3.60;;
25936;SDS011;13733;51.178;4.450;2023-09-19T03:00:36;14.55;;;3.42;;
25936;SDS011;13733;51.178;4.450;2023-09-19T03:03:02;18.27;;;3.85;;
25936;SDS011;13733;51.178;4.450;2023-09-19T03:05:28;15.43;;;3.75;;
25936;SDS011;13733;51.178;4.450;2023-09-19T03:07:56;20.40;;;3.97;;
25936;SDS011;13733;51.178;4.450;2023-09-19T03:10:26;22.55;;;3.50;;
25936;SDS011;13733;51.178;4.450;2023-09-19T03:12:53;13.10;;;3.30;;
25936;SDS011;13733;51.178;4.450;2023-09-19T03:15:20;15.52;;;3.33;;
25936;SDS011;13733;51.178;4.450;2023-09-19T03:17:48;21.55;;;3.65;;
25936;SDS011;13733;51.178;4.450;2023-09-19T03:20:19;13.07;;;3.33;;
25936;SDS011;13733;51.178;4.450;2023-09-19T03:22:47;16.67;;;3.63;;
25936;SDS011;13733;51.178;4.450;2023-09-19T03:25:15;15.73;;;3.47;;
25936;SDS011;13733;51.178;4.450;2023-09-19T03:27:44;20.25;;;3.58;;
25936;SDS011;13733;51.178;4.450;2023-09-19T03:30:12;17.90;;;3.63;;
25936;SDS011;13733;51.178;4.450;2023-09-19T03:32:44;14.80;;;3.55;;
25936;SDS011;13733;51.178;4.450;2023-09-19T03:35:11;19.15;;;3.55;;
25936;SDS011;13733;51.178;4.450;2023-09-19T03:37:41;11.77;;;3.13;;
25936;SDS011;13733;51.178;4.450;2023-09-19T03:40:08;22.27;;;4.28;;
25936;SDS011;13733;51.178;4.450;2023-09-19T03:42:39;12.65;;;2.95;;
25936;SDS011;13733;51.178;4.450;2023-09-19T03:45:07;14.52;;;3.45;;
25936;SDS011;13733;51.178;4.450;2023-09-19T03:47:38;19.08;;;3.78;;
25936;SDS011;13733;51.178;4.450;2023-09-19T03:50:06;16.35;;;3.45;;
25936;SDS011;13733;51.178;4.450;2023-09-19T03:52:34;16.10;;;3.40;;
25936;SDS011;13733;51.178;4.450;2023-09-19T03:55:00;11.48;;;3.33;;
25936;SDS011;13733;51.178;4.450;2023-09-19T03:57:28;10.77;;;2.92;;
25936;SDS011;13733;51.178;4.450;2023-09-19T03:59:54;14.20;;;3.45;;
25936;SDS011;13733;51.178;4.450;2023-09-19T04:02:21;19.77;;;4.13;;
25936;SDS011;13733;51.178;4.450;2023-09-19T04:04:49;14.52;;;3.53;;
25936;SDS011;13733;51.178;4.450;2023-09-19T04:07:15;16.85;;;3.60;;
25936;SDS011;13733;51.178;4.450;2023-09-19T04:09:42;16.70;;;3.78;;
25936;SDS011;13733;51.178;4.450;2023-09-19T04:12:08;16.08;;;3.80;;
25936;SDS011;13733;51.178;4.450;2023-09-19T04:14:34;14.02;;;3.55;;
25936;SDS011;13733;51.178;4.450;2023-09-19T04:17:00;17.58;;;3.65;;
25936;SDS011;13733;51.178;4.450;2023-09-19T04:19:26;12.30;;;3.63;;
25936;SDS011;13733;51.178;4.450;2023-09-19T04:21:52;13.52;;;3.17;;
25936;SDS011;13733;51.178;4.450;2023-09-19T04:24:18;13.82;;;3.05;;
25936;SDS011;13733;51.178;4.450;2023-09-19T04:26:44;15.55;;;3.22;;
25936;SDS011;13733;51.178;4.450;2023-09-19T04:29:11;15.98;;;3.45;;
25936;SDS011;13733;51.178;4.450;2023-09-19T04:31:39;20.10;;;4.35;;
25936;SDS011;13733;51.178;4.450;2023-09-19T04:34:06;16.10;;;3.58;;
25936;SDS011;13733;51.178;4.450;2023-09-19T04:36:33;16.48;;;4.15;;
25936;SDS011;13733;51.178;4.450;2023-09-19T04:38:58;16.63;;;3.78;;
25936;SDS011;13733;51.178;4.450;2023-09-19T04:41:24;22.02;;;4.15;;
25936;SDS011;13733;51.178;4.450;2023-09-19T04:43:50;17.25;;;3.80;;
25936;SDS011;13733;51.178;4.450;2023-09-19T04:46:16;16.25;;;3.50;;
25936;SDS011;13733;51.178;4.450;2023-09-19T04:48:43;15.93;;;3.30;;
25936;SDS011;13733;51.178;4.450;2023-09-19T04:51:08;16.00;;;3.30;;
25936;SDS011;13733;51.178;4.450;2023-09-19T04:53:36;16.10;;;3.67;;
25936;SDS011;13733;51.178;4.450;2023-09-19T04:56:02;13.35;;;3.47;;
25936;SDS011;13733;51.178;4.450;2023-09-19T04:58:28;17.15;;;3.33;;
25936;SDS011;13733;51.178;4.450;2023-09-19T05:00:55;17.17;;;3.60;;
25936;SDS011;13733;51.178;4.450;2023-09-19T05:03:21;17.35;;;4.28;;
25936;SDS011;13733;51.178;4.450;2023-09-19T05:05:47;17.67;;;3.72;;
25936;SDS011;13733;51.178;4.450;2023-09-19T05:08:14;19.08;;;4.60;;
25936;SDS011;13733;51.178;4.450;2023-09-19T05:10:40;21.60;;;3.55;;
25936;SDS011;13733;51.178;4.450;2023-09-19T05:13:06;15.30;;;3.80;;
25936;SDS011;13733;51.178;4.450;2023-09-19T05:15:34;28.42;;;4.18;;
25936;SDS011;13733;51.178;4.450;2023-09-19T05:18:00;13.23;;;3.45;;
25936;SDS011;13733;51.178;4.450;2023-09-19T05:20:26;21.80;;;3.63;;
25936;SDS011;13733;51.178;4.450;2023-09-19T05:23:01;16.75;;;3.80;;
25936;SDS011;13733;51.178;4.450;2023-09-19T05:25:31;17.30;;;3.45;;
25936;SDS011;13733;51.178;4.450;2023-09-19T05:28:00;20.08;;;3.92;;
25936;SDS011;13733;51.178;4.450;2023-09-19T05:30:28;24.50;;;3.83;;
25936;SDS011;13733;51.178;4.450;2023-09-19T05:32:55;23.65;;;4.25;;
25936;SDS011;13733;51.178;4.450;2023-09-19T05:35:21;19.90;;;4.72;;
25936;SDS011;13733;51.178;4.450;2023-09-19T05:37:49;18.85;;;4.75;;
25936;SDS011;13733;51.178;4.450;2023-09-19T05:40:17;16.08;;;3.92;;
25936;SDS011;13733;51.178;4.450;2023-09-19T05:42:43;12.15;;;3.80;;
25936;SDS011;13733;51.178;4.450;2023-09-19T05:45:09;19.65;;;3.97;;
25936;SDS011;13733;51.178;4.450;2023-09-19T05:47:42;24.42;;;4.43;;
25936;SDS011;13733;51.178;4.450;2023-09-19T05:50:10;18.08;;;4.00;;
25936;SDS011;13733;51.178;4.450;2023-09-19T05:52:37;16.27;;;3.80;;
25936;SDS011;13733;51.178;4.450;2023-09-19T05:55:06;20.42;;;3.63;;
25936;SDS011;13733;51.178;4.450;2023-09-19T05:57:36;20.20;;;3.77;;
25936;SDS011;13733;51.178;4.450;2023-09-19T06:00:05;18.52;;;4.10;;
25936;SDS011;13733;51.178;4.450;2023-09-19T06:02:38;27.13;;;4.32;;
25936;SDS011;13733;51.178;4.450;2023-09-19T06:05:05;19.35;;;3.95;;
25936;SDS011;13733;51.178;4.450;2023-09-19T06:07:32;15.95;;;3.70;;
25936;SDS011;13733;51.178;4.450;2023-09-19T06:10:03;24.73;;;4.03;;
25936;SDS011;13733;51.178;4.450;2023-09-19T06:12:32;18.83;;;4.07;;
25936;SDS011;13733;51.178;4.450;2023-09-19T06:15:02;15.25;;;3.60;;
25936;SDS011;13733;51.178;4.450;2023-09-19T06:17:30;19.30;;;4.07;;
25936;SDS011;13733;51.178;4.450;2023-09-19T06:19:56;14.43;;;3.33;;
25936;SDS011;13733;51.178;4.450;2023-09-19T06:22:22;24.52;;;4.35;;
25936;SDS011;13733;51.178;4.450;2023-09-19T06:24:49;17.58;;;3.70;;
25936;SDS011;13733;51.178;4.450;2023-09-19T06:27:15;16.67;;;3.72;;
25936;SDS011;13733;51.178;4.450;2023-09-19T06:29:41;14.80;;;3.42;;
25936;SDS011;13733;51.178;4.450;2023-09-19T06:32:10;23.38;;;4.35;;
25936;SDS011;13733;51.178;4.450;2023-09-19T06:34:36;15.88;;;3.50;;
25936;SDS011;13733;51.178;4.450;2023-09-19T06:37:04;18.30;;;3.85;;
25936;SDS011;13733;51.178;4.450;2023-09-19T06:39:31;15.32;;;3.35;;
25936;SDS011;13733;51.178;4.450;2023-09-19T06:41:58;20.75;;;3.67;;
25936;SDS011;13733;51.178;4.450;2023-09-19T06:44:25;12.20;;;3.10;;
25936;SDS011;13733;51.178;4.450;2023-09-19T06:46:51;19.80;;;3.85;;
25936;SDS011;13733;51.178;4.450;2023-09-19T06:49:17;17.52;;;4.13;;
25936;SDS011;13733;51.178;4.450;2023-09-19T06:51:43;18.20;;;3.65;;
25936;SDS011;13733;51.178;4.450;2023-09-19T06:54:09;19.52;;;3.42;;
25936;SDS011;13733;51.178;4.450;2023-09-19T06:56:35;18.13;;;3.47;;
25936;SDS011;13733;51.178;4.450;2023-09-19T06:59:01;21.38;;;3.85;;
25936;SDS011;13733;51.178;4.450;2023-09-19T07:01:28;16.00;;;3.30;;
25936;SDS011;13733;51.178;4.450;2023-09-19T07:03:54;19.65;;;3.70;;
25936;SDS011;13733;51.178;4.450;2023-09-19T07:06:20;18.23;;;4.38;;
25936;SDS011;13733;51.178;4.450;2023-09-19T07:08:45;17.13;;;4.35;;
25936;SDS011;13733;51.178;4.450;2023-09-19T07:11:11;16.25;;;3.65;;
25936;SDS011;13733;51.178;4.450;2023-09-19T07:13:40;19.95;;;3.95;;
25936;SDS011;13733;51.178;4.450;2023-09-19T07:16:06;16.05;;;3.53;;
25936;SDS011;13733;51.178;4.450;2023-09-19T07:18:35;18.33;;;3.15;;
25936;SDS011;13733;51.178;4.450;2023-09-19T07:21:02;18.77;;;3.28;;
25936;SDS011;13733;51.178;4.450;2023-09-19T07:23:30;14.50;;;3.30;;
25936;SDS011;13733;51.178;4.450;2023-09-19T07:26:00;14.88;;;3.20;;
25936;SDS011;13733;51.178;4.450;2023-09-19T07:28:26;20.77;;;4.00;;
25936;SDS011;13733;51.178;4.450;2023-09-19T07:30:53;26.27;;;4.10;;
25936;SDS011;13733;51.178;4.450;2023-09-19T07:33:19;15.98;;;3.58;;
25936;SDS011;13733;51.178;4.450;2023-09-19T07:35:48;19.67;;;3.30;;
25936;SDS011;13733;51.178;4.450;2023-09-19T07:38:14;14.13;;;2.83;;
25936;SDS011;13733;51.178;4.450;2023-09-19T07:40:40;18.60;;;3.22;;
25936;SDS011;13733;51.178;4.450;2023-09-19T07:43:05;15.25;;;2.95;;
25936;SDS011;13733;51.178;4.450;2023-09-19T07:45:32;14.20;;;3.13;;
25936;SDS011;13733;51.178;4.450;2023-09-19T07:47:58;16.52;;;3.85;;
25936;SDS011;13733;51.178;4.450;2023-09-19T07:50:29;16.52;;;3.25;;
25936;SDS011;13733;51.178;4.450;2023-09-19T07:52:55;13.05;;;3.15;;
25936;SDS011;13733;51.178;4.450;2023-09-19T07:55:21;15.65;;;3.45;;
25936;SDS011;13733;51.178;4.450;2023-09-19T07:57:50;16.88;;;3.70;;
25936;SDS011;13733;51.178;4.450;2023-09-19T08:00:16;15.65;;;3.33;;
25936;SDS011;13733;51.178;4.450;2023-09-19T08:02:42;16.33;;;3.70;;
25936;SDS011;13733;51.178;4.450;2023-09-19T08:05:09;18.15;;;3.70;;
25936;SDS011;13733;51.178;4.450;2023-09-19T08:07:37;15.90;;;3.85;;
25936;SDS011;13733;51.178;4.450;2023-09-19T08:10:07;19.30;;;3.38;;
25936;SDS011;13733;51.178;4.450;2023-09-19T08:12:38;15.35;;;3.50;;
25936;SDS011;13733;51.178;4.450;2023-09-19T08:15:18;20.75;;;3.63;;
25936;SDS011;13733;51.178;4.450;2023-09-19T08:17:45;16.63;;;3.58;;
25936;SDS011;13733;51.178;4.450;2023-09-19T08:20:11;18.40;;;3.50;;
25936;SDS011;13733;51.178;4.450;2023-09-19T08:22:50;14.73;;;4.10;;
25936;SDS011;13733;51.178;4.450;2023-09-19T08:25:21;12.43;;;3.25;;
25936;SDS011;13733;51.178;4.450;2023-09-19T08:27:48;14.85;;;3.97;;
25936;SDS011;13733;51.178;4.450;2023-09-19T08:30:21;17.30;;;3.45;;
25936;SDS011;13733;51.178;4.450;2023-09-19T08:32:50;13.88;;;3.67;;
25936;SDS011;13733;51.178;4.450;2023-09-19T08:35:16;21.27;;;3.50;;
25936;SDS011;13733;51.178;4.450;2023-09-19T08:37:42;23.50;;;3.97;;
25936;SDS011;13733;51.178;4.450;2023-09-19T08:40:10;17.42;;;3.60;;
25936;SDS011;13733;51.178;4.450;2023-09-19T08:42:47;20.33;;;4.03;;
25936;SDS011;13733;51.178;4.450;2023-09-19T08:47:50;12.70;;;3.25;;
25936;SDS011;13733;51.178;4.450;2023-09-19T08:50:31;14.02;;;3.88;;
25936;SDS011;13733;51.178;4.450;2023-09-19T08:53:06;18.73;;;3.17;;
25936;SDS011;13733;51.178;4.450;2023-09-19T08:55:36;17.33;;;3.47;;
25936;SDS011;13733;51.178;4.450;2023-09-19T08:58:06;14.77;;;3.33;;
25936;SDS011;13733;51.178;4.450;2023-09-19T09:00:39;20.52;;;3.60;;
25936;SDS011;13733;51.178;4.450;2023-09-19T09:03:08;23.98;;;4.15;;
25936;SDS011;13733;51.178;4.450;2023-09-19T09:05:36;15.45;;;3.92;;
25936;SDS011;13733;51.178;4.450;2023-09-19T09:08:05;22.92;;;3.85;;
25936;SDS011;13733;51.178;4.450;2023-09-19T09:10:32;13.68;;;3.45;;
25936;SDS011;13733;51.178;4.450;2023-09-19T09:12:59;20.40;;;3.90;;
25936;SDS011;13733;51.178;4.450;2023-09-19T09:15:25;13.75;;;3.40;;
25936;SDS011;13733;51.178;4.450;2023-09-19T09:17:51;17.88;;;3.60;;
25936;SDS011;13733;51.178;4.450;2023-09-19T09:20:21;14.07;;;3.42;;
25936;SDS011;13733;51.178;4.450;2023-09-19T09:22:51;11.77;;;3.20;;
25936;SDS011;13733;51.178;4.450;2023-09-19T09:25:18;18.98;;;3.35;;
25936;SDS011;13733;51.178;4.450;2023-09-19T09:27:46;14.70;;;3.60;;
25936;SDS011;13733;51.178;4.450;2023-09-19T09:30:34;12.32;;;3.08;;
25936;SDS011;13733;51.178;4.450;2023-09-19T09:33:08;18.90;;;3.67;;
25936;SDS011;13733;51.178;4.450;2023-09-19T09:35:47;17.10;;;3.35;;
25936;SDS011;13733;51.178;4.450;2023-09-19T09:38:25;19.40;;;3.28;;
25936;SDS011;13733;51.178;4.450;2023-09-19T09:40:53;14.85;;;3.08;;
25936;SDS011;13733;51.178;4.450;2023-09-19T09:43:35;13.95;;;3.38;;
25936;SDS011;13733;51.178;4.450;2023-09-19T09:49:01;16.02;;;3.20;;
25936;SDS011;13733;51.178;4.450;2023-09-19T09:52:04;9.63;;;3.17;;
25936;SDS011;13733;51.178;4.450;2023-09-19T09:57:30;16.02;;;2.90;;
25936;SDS011;13733;51.178;4.450;2023-09-19T09:59:58;11.18;;;2.45;;
25936;SDS011;13733;51.178;4.450;2023-09-19T10:02:41;15.02;;;2.97;;
25936;SDS011;13733;51.178;4.450;2023-09-19T10:07:52;10.20;;;2.33;;
25936;SDS011;13733;51.178;4.450;2023-09-19T10:10:35;8.52;;;2.33;;
25936;SDS011;13733;51.178;4.450;2023-09-19T10:13:08;14.20;;;2.72;;
25936;SDS011;13733;51.178;4.450;2023-09-19T10:15:39;8.85;;;2.30;;
25936;SDS011;13733;51.178;4.450;2023-09-19T10:18:07;15.45;;;2.30;;
25936;SDS011;13733;51.178;4.450;2023-09-19T10:20:39;6.60;;;2.15;;
25936;SDS011;13733;51.178;4.450;2023-09-19T10:23:09;9.88;;;2.35;;
25936;SDS011;13733;51.178;4.450;2023-09-19T10:25:42;12.23;;;2.58;;
25936;SDS011;13733;51.178;4.450;2023-09-19T10:28:11;8.18;;;2.28;;
25936;SDS011;13733;51.178;4.450;2023-09-19T10:33:16;8.43;;;2.25;;
25936;SDS011;13733;51.178;4.450;2023-09-19T10:35:46;8.10;;;2.47;;
25936;SDS011;13733;51.178;4.450;2023-09-19T10:38:14;10.95;;;2.40;;
25936;SDS011;13733;51.178;4.450;2023-09-19T10:40:50;7.47;;;2.10;;
25936;SDS011;13733;51.178;4.450;2023-09-19T10:43:19;12.05;;;2.70;;
25936;SDS011;13733;51.178;4.450;2023-09-19T10:45:46;12.77;;;2.60;;
25936;SDS011;13733;51.178;4.450;2023-09-19T10:48:18;8.90;;;2.03;;
25936;SDS011;13733;51.178;4.450;2023-09-19T10:53:14;8.30;;;1.83;;
25936;SDS011;13733;51.178;4.450;2023-09-19T10:55:42;8.63;;;2.15;;
25936;SDS011;13733;51.178;4.450;2023-09-19T10:58:29;15.75;;;2.38;;
25936;SDS011;13733;51.178;4.450;2023-09-19T11:01:00;6.57;;;1.80;;
25936;SDS011;13733;51.178;4.450;2023-09-19T11:03:37;10.00;;;1.92;;
25936;SDS011;13733;51.178;4.450;2023-09-19T11:06:09;7.53;;;1.95;;
25936;SDS011;13733;51.178;4.450;2023-09-19T11:30:39;9.82;;;1.60;;
25936;SDS011;13733;51.178;4.450;2023-09-19T11:33:15;7.85;;;1.85;;
25936;SDS011;13733;51.178;4.450;2023-09-19T11:43:53;7.63;;;1.80;;
25936;SDS011;13733;51.178;4.450;2023-09-19T11:47:08;8.43;;;1.30;;
25936;SDS011;13733;51.178;4.450;2023-09-19T11:49:19;7.28;;;1.55;;
25936;SDS011;13733;51.178;4.450;2023-09-19T11:51:55;7.40;;;1.50;;
25936;SDS011;13733;51.178;4.450;2023-09-19T11:54:22;5.72;;;1.58;;
25936;SDS011;13733;51.178;4.450;2023-09-19T11:56:53;6.30;;;1.50;;
25936;SDS011;13733;51.178;4.450;2023-09-19T11:59:20;7.65;;;1.63;;
25936;SDS011;13733;51.178;4.450;2023-09-19T12:02:05;6.28;;;1.30;;
25936;SDS011;13733;51.178;4.450;2023-09-19T12:04:37;7.95;;;1.88;;
25936;SDS011;13733;51.178;4.450;2023-09-19T12:07:06;9.07;;;1.85;;
25936;SDS011;13733;51.178;4.450;2023-09-19T12:09:38;5.50;;;1.50;;
25936;SDS011;13733;51.178;4.450;2023-09-19T12:12:06;5.20;;;1.27;;
25936;SDS011;13733;51.178;4.450;2023-09-19T12:14:32;3.63;;;1.50;;
25936;SDS011;13733;51.178;4.450;2023-09-19T12:16:58;5.88;;;1.73;;
25936;SDS011;13733;51.178;4.450;2023-09-19T12:19:26;9.40;;;1.60;;
25936;SDS011;13733;51.178;4.450;2023-09-19T12:21:54;7.55;;;1.70;;
25936;SDS011;13733;51.178;4.450;2023-09-19T12:24:23;5.00;;;1.50;;
25936;SDS011;13733;51.178;4.450;2023-09-19T12:26:51;3.70;;;1.48;;
25936;SDS011;13733;51.178;4.450;2023-09-19T12:29:21;5.90;;;1.77;;
25936;SDS011;13733;51.178;4.450;2023-09-19T12:31:52;6.97;;;1.70;;
25936;SDS011;13733;51.178;4.450;2023-09-19T12:34:31;5.80;;;1.40;;
25936;SDS011;13733;51.178;4.450;2023-09-19T12:39:40;6.30;;;1.42;;
25936;SDS011;13733;51.178;4.450;2023-09-19T12:42:11;7.78;;;1.50;;
25936;SDS011;13733;51.178;4.450;2023-09-19T12:44:46;10.15;;;1.80;;
25936;SDS011;13733;51.178;4.450;2023-09-19T12:47:18;7.18;;;1.60;;
25936;SDS011;13733;51.178;4.450;2023-09-19T12:52:55;13.50;;;1.95;;
25936;SDS011;13733;51.178;4.450;2023-09-19T12:55:30;5.60;;;1.77;;
25936;SDS011;13733;51.178;4.450;2023-09-19T12:58:12;5.07;;;1.40;;
25936;SDS011;13733;51.178;4.450;2023-09-19T13:00:40;7.00;;;1.60;;
25936;SDS011;13733;51.178;4.450;2023-09-19T13:08:28;10.40;;;2.03;;
25936;SDS011;13733;51.178;4.450;2023-09-19T13:11:00;4.03;;;1.52;;
25936;SDS011;13733;51.178;4.450;2023-09-19T13:16:14;11.02;;;2.13;;
25936;SDS011;13733;51.178;4.450;2023-09-19T13:18:51;9.50;;;2.00;;
25936;SDS011;13733;51.178;4.450;2023-09-19T13:21:40;5.95;;;1.92;;
25936;SDS011;13733;51.178;4.450;2023-09-19T13:24:18;6.50;;;1.63;;
25936;SDS011;13733;51.178;4.450;2023-09-19T13:26:46;7.07;;;1.70;;
25936;SDS011;13733;51.178;4.450;2023-09-19T13:29:11;8.18;;;2.00;;
25936;SDS011;13733;51.178;4.450;2023-09-19T13:31:38;6.78;;;1.50;;
25936;SDS011;13733;51.178;4.450;2023-09-19T13:34:06;9.27;;;1.83;;
25936;SDS011;13733;51.178;4.450;2023-09-19T13:36:32;11.80;;;1.90;;
25936;SDS011;13733;51.178;4.450;2023-09-19T13:38:59;5.63;;;1.77;;
25936;SDS011;13733;51.178;4.450;2023-09-19T13:41:25;7.63;;;2.10;;
25936;SDS011;13733;51.178;4.450;2023-09-19T13:43:51;7.82;;;2.20;;
25936;SDS011;13733;51.178;4.450;2023-09-19T13:46:17;11.10;;;1.98;;
25936;SDS011;13733;51.178;4.450;2023-09-19T13:48:50;9.23;;;2.13;;
25936;SDS011;13733;51.178;4.450;2023-09-19T13:51:20;6.65;;;1.90;;
25936;SDS011;13733;51.178;4.450;2023-09-19T13:53:48;7.25;;;1.92;;
25936;SDS011;13733;51.178;4.450;2023-09-19T13:56:15;4.07;;;1.95;;
25936;SDS011;13733;51.178;4.450;2023-09-19T13:58:41;6.47;;;1.98;;
25936;SDS011;13733;51.178;4.450;2023-09-19T14:01:07;4.82;;;1.70;;
25936;SDS011;13733;51.178;4.450;2023-09-19T14:06:11;9.55;;;1.83;;
25936;SDS011;13733;51.178;4.450;2023-09-19T14:08:41;7.35;;;2.20;;
25936;SDS011;13733;51.178;4.450;2023-09-19T14:11:08;6.65;;;2.17;;
25936;SDS011;13733;51.178;4.450;2023-09-19T14:13:34;7.20;;;1.90;;
25936;SDS011;13733;51.178;4.450;2023-09-19T14:16:06;9.63;;;2.25;;
25936;SDS011;13733;51.178;4.450;2023-09-19T14:18:34;5.40;;;1.77;;
25936;SDS011;13733;51.178;4.450;2023-09-19T14:21:03;8.13;;;2.25;;
25936;SDS011;13733;51.178;4.450;2023-09-19T14:23:37;6.13;;;1.80;;
25936;SDS011;13733;51.178;4.450;2023-09-19T14:26:03;6.70;;;1.70;;
25936;SDS011;13733;51.178;4.450;2023-09-19T14:28:31;9.00;;;2.40;;
25936;SDS011;13733;51.178;4.450;2023-09-19T14:31:08;12.70;;;2.08;;
25936;SDS011;13733;51.178;4.450;2023-09-19T14:33:35;4.90;;;1.80;;
25936;SDS011;13733;51.178;4.450;2023-09-19T14:36:05;5.30;;;1.77;;
25936;SDS011;13733;51.178;4.450;2023-09-19T14:38:33;9.75;;;2.03;;
25936;SDS011;13733;51.178;4.450;2023-09-19T14:41:03;10.20;;;2.15;;
25936;SDS011;13733;51.178;4.450;2023-09-19T14:43:31;7.72;;;1.98;;
25936;SDS011;13733;51.178;4.450;2023-09-19T14:46:07;9.45;;;2.40;;
25936;SDS011;13733;51.178;4.450;2023-09-19T14:48:34;7.82;;;2.33;;
25936;SDS011;13733;51.178;4.450;2023-09-19T14:51:04;6.70;;;2.30;;
25936;SDS011;13733;51.178;4.450;2023-09-19T14:55:56;7.57;;;2.00;;
25936;SDS011;13733;51.178;4.450;2023-09-19T14:58:26;7.32;;;2.00;;
25936;SDS011;13733;51.178;4.450;2023-09-19T15:01:02;8.75;;;2.42;;
25936;SDS011;13733;51.178;4.450;2023-09-19T15:03:32;8.73;;;2.10;;
25936;SDS011;13733;51.178;4.450;2023-09-19T15:05:59;6.15;;;2.00;;
25936;SDS011;13733;51.178;4.450;2023-09-19T15:08:34;6.43;;;2.17;;
25936;SDS011;13733;51.178;4.450;2023-09-19T15:11:03;6.13;;;2.15;;
25936;SDS011;13733;51.178;4.450;2023-09-19T15:13:34;8.07;;;2.08;;
25936;SDS011;13733;51.178;4.450;2023-09-19T15:16:01;10.27;;;2.38;;
25936;SDS011;13733;51.178;4.450;2023-09-19T15:18:28;7.05;;;2.10;;
25936;SDS011;13733;51.178;4.450;2023-09-19T15:20:56;9.15;;;2.10;;
25936;SDS011;13733;51.178;4.450;2023-09-19T15:23:25;10.20;;;2.10;;
25936;SDS011;13733;51.178;4.450;2023-09-19T15:25:51;11.93;;;2.53;;
25936;SDS011;13733;51.178;4.450;2023-09-19T15:28:18;11.32;;;2.28;;
25936;SDS011;13733;51.178;4.450;2023-09-19T15:30:48;10.95;;;2.63;;
25936;SDS011;13733;51.178;4.450;2023-09-19T15:33:14;8.98;;;2.30;;
25936;SDS011;13733;51.178;4.450;2023-09-19T15:35:40;12.82;;;2.20;;
25936;SDS011;13733;51.178;4.450;2023-09-19T15:38:07;12.43;;;2.60;;
25936;SDS011;13733;51.178;4.450;2023-09-19T15:40:33;6.22;;;2.20;;
25936;SDS011;13733;51.178;4.450;2023-09-19T15:42:59;9.35;;;2.20;;
25936;SDS011;13733;51.178;4.450;2023-09-19T15:45:25;11.27;;;2.42;;
25936;SDS011;13733;51.178;4.450;2023-09-19T15:47:51;5.95;;;2.13;;
25936;SDS011;13733;51.178;4.450;2023-09-19T15:50:18;9.25;;;2.38;;
25936;SDS011;13733;51.178;4.450;2023-09-19T15:52:44;8.45;;;2.33;;
25936;SDS011;13733;51.178;4.450;2023-09-19T15:55:12;9.07;;;2.25;;
25936;SDS011;13733;51.178;4.450;2023-09-19T15:57:39;13.20;;;2.50;;
25936;SDS011;13733;51.178;4.450;2023-09-19T16:00:06;7.03;;;2.38;;
25936;SDS011;13733;51.178;4.450;2023-09-19T16:02:38;9.95;;;2.38;;
25936;SDS011;13733;51.178;4.450;2023-09-19T16:05:04;8.95;;;2.28;;
25936;SDS011;13733;51.178;4.450;2023-09-19T16:07:32;11.93;;;3.28;;
25936;SDS011;13733;51.178;4.450;2023-09-19T16:09:59;9.15;;;2.55;;
25936;SDS011;13733;51.178;4.450;2023-09-19T16:12:26;10.25;;;2.30;;
25936;SDS011;13733;51.178;4.450;2023-09-19T16:14:51;9.20;;;2.72;;
25936;SDS011;13733;51.178;4.450;2023-09-19T16:17:17;9.32;;;2.47;;
25936;SDS011;13733;51.178;4.450;2023-09-19T16:19:43;9.57;;;2.40;;